Arogyavaram, India

8:37 PM IST on March 01, 2015 (GMT +0530)
Bangalore | Change Station
CLOSE
Current Station
Airport
Location: Bangalore,
Elevation: 3002 ft
Nearby Weather Stations

Elev 3002 ft 13.20 °N, 77.71 °E | Updated 7 minutes ago

Scattered Clouds
Scattered Clouds
81 °F
Feels Like 85 °F
N
7
Wind Variable Wind from South

Today
High -- | Low -- °F
--% Chance of Precip.
Yesterday
High -- | Low -- °F
Precip. -- in
6:32 AM 6:24 PM
Waxing Gibbous, 85% visible
Pressure 29.98 in
Visibility 3.7 miles
Clouds Scattered Clouds 1500 ft
Scattered Clouds 2000 ft
Heat Index 85 °F
Dew Point 73 °F
Humidity 79%
Rainfall 0.00 in
Snow Depth Not available.
UV 0 out of 12
Pollen Not available.
Air Quality Not available.
Flu Activity Not available.
METAR VOBL 011500Z 19006KT 170V240 6000 SCT015 SCT020 27/23 Q1015 NOSIG

More Conditions Fewer Conditions

Pressure 29.98 in
Visibility 3.7 miles
Clouds Scattered Clouds 1500 ft
Scattered Clouds 2000 ft
Heat Index 85 °F
Dew Point 73 °F
Humidity 79%
Rainfall 0.00 in
Snow Depth Not available.
UV 0 out of 12
Pollen Not available.
Air Quality Not available.
Flu Activity Not available.
METAR VOBL 011500Z 19006KT 170V240 6000 SCT015 SCT020 27/23 Q1015 NOSIG

More Conditions Fewer Conditions

10-Day Weather Forecast

Almanac

Astronomy

Mar. 01, 2015 Rise Set
Actual Time
Civil Twilight
Nautical Twilight
Astronomical Twilight
Moon
Length of Visible Light
Length of Day
Tomorrow will be .
, % of the Moon is Illuminated

Today's Extremes

Country Highs Country Lows

Community

WunderPhotos

Upload Photos

1,801,406 photos uploaded!

WunderBlogs® & News

Nearby

Air Quality

  Air Quality AQ Index Pollutant
Not available.

Snow Depth

Station Depth Elevation

Earthquake Activity

City Distance Mag. Time & Date
Minimum magnitude displayed is 2.5.

Coastal Water Temperatures

Place Temperature

Nearby Weather Stations